Time;durP1;ratioP1;P1;durP2;ratioP2;P2;SDS_P1;SDS_P2;PMS_P1;PMS_P2;Temp;Humidity;BMP_temperature;BMP_pressure;BME280_temperature;BME280_humidity;BME280_pressure;Samples;Min_cycle;Max_cycle;Signal;HPM_P1;HPM_P2
2023/05/01 00:02:01;;;;;;;6.70;2.92;;;13.00;99.90;;;;;;5097535;28;20024;-75
2023/05/01 00:04:27;;;;;;;6.60;3.88;;;13.00;99.90;;;;;;5097972;28;20024;-75
2023/05/01 00:06:52;;;;;;;5.07;3.42;;;13.00;99.90;;;;;;5097553;28;20047;-74
2023/05/01 00:09:18;;;;;;;9.63;3.67;;;12.90;99.90;;;;;;5097634;28;20031;-73
2023/05/01 00:11:44;;;;;;;7.63;3.28;;;12.80;99.90;;;;;;5098486;28;20020;-75
2023/05/01 00:14:10;;;;;;;5.25;3.03;;;12.80;99.90;;;;;;5097382;28;20023;-74
2023/05/01 00:16:36;;;;;;;6.93;3.20;;;12.80;99.90;;;;;;5097247;28;20118;-74
2023/05/01 00:19:03;;;;;;;6.88;3.08;;;12.70;99.90;;;;;;5097350;28;20038;-73
2023/05/01 00:21:29;;;;;;;6.95;3.47;;;12.80;99.90;;;;;;5097475;28;20016;-73
2023/05/01 00:23:55;;;;;;;8.45;3.17;;;12.70;99.90;;;;;;5097599;28;20026;-74
2023/05/01 00:26:21;;;;;;;6.95;3.22;;;12.70;99.90;;;;;;5097103;28;20024;-76
2023/05/01 00:28:46;;;;;;;8.13;3.17;;;12.80;99.90;;;;;;5097952;28;20076;-75
2023/05/01 00:31:12;;;;;;;4.55;2.80;;;12.80;99.90;;;;;;5096971;28;20056;-75
2023/05/01 00:33:37;;;;;;;4.45;3.03;;;12.70;99.90;;;;;;5097939;28;20149;-75
2023/05/01 00:36:03;;;;;;;6.57;3.42;;;12.70;99.90;;;;;;5097294;28;20031;-73
2023/05/01 00:38:28;;;;;;;4.35;2.67;;;12.60;99.90;;;;;;5096888;28;20029;-73
2023/05/01 00:40:54;;;;;;;10.55;3.33;;;12.60;99.90;;;;;;5097379;28;20066;-73
2023/05/01 00:43:19;;;;;;;3.95;2.90;;;12.50;99.90;;;;;;5097230;28;20027;-73
2023/05/01 00:45:45;;;;;;;3.42;2.58;;;12.50;99.90;;;;;;5096826;28;20025;-74
2023/05/01 00:48:11;;;;;;;4.85;3.05;;;12.50;99.90;;;;;;5096819;28;20020;-74
2023/05/01 00:50:37;;;;;;;7.45;3.28;;;12.40;99.90;;;;;;5096604;28;20039;-74
2023/05/01 00:53:03;;;;;;;5.10;3.13;;;12.50;99.90;;;;;;5096790;28;20020;-73
2023/05/01 00:55:30;;;;;;;5.47;2.90;;;12.40;99.90;;;;;;5096988;28;20066;-73
2023/05/01 00:57:57;;;;;;;9.85;3.03;;;12.40;99.90;;;;;;5080133;28;20048;-73
2023/05/01 01:00:23;;;;;;;4.47;2.83;;;12.40;99.90;;;;;;5097198;28;20032;-75
2023/05/01 01:02:49;;;;;;;6.60;3.22;;;12.30;99.90;;;;;;5098044;28;20021;-73
2023/05/01 01:05:15;;;;;;;5.78;3.42;;;12.20;99.90;;;;;;5096884;28;20054;-73
2023/05/01 01:07:50;;;;;;;4.57;2.75;;;12.20;99.90;;;;;;5097343;28;20057;-73
2023/05/01 01:10:29;;;;;;;4.60;2.65;;;12.20;99.90;;;;;;5097264;28;20087;-75
2023/05/01 01:13:10;;;;;;;3.35;2.63;;;12.10;99.90;;;;;;5097060;28;20031;-75
2023/05/01 01:15:52;;;;;;;9.75;3.00;;;12.10;99.90;;;;;;5096555;28;20051;-74
2023/05/01 01:18:44;;;;;;;;;;;12.00;99.90;;;;;;5097895;28;20032;-74
2023/05/01 01:21:31;;;;;;;5.85;2.83;;;12.00;99.90;;;;;;5096383;28;19911;-74
2023/05/01 01:24:27;;;;;;;4.35;2.70;;;12.00;99.90;;;;;;5097162;28;20092;-74
2023/05/01 01:27:35;;;;;;;8.23;3.10;;;11.90;99.90;;;;;;5096488;28;20024;-74
2023/05/01 01:30:38;;;;;;;8.80;2.83;;;11.90;99.90;;;;;;5073889;28;20063;-74
2023/05/01 01:33:25;;;;;;;4.72;2.42;;;11.90;99.90;;;;;;5096687;28;20028;-74
2023/05/01 01:35:58;;;;;;;5.70;3.45;;;11.80;99.90;;;;;;5096959;28;20089;-73
2023/05/01 01:38:39;;;;;;;4.97;2.78;;;11.90;99.90;;;;;;5096361;28;20027;-74
2023/05/01 01:41:12;;;;;;;7.63;2.80;;;11.80;99.90;;;;;;5098729;28;20103;-74
2023/05/01 01:43:43;;;;;;;6.15;2.92;;;11.80;99.90;;;;;;5100317;28;20027;-75
2023/05/01 01:46:10;;;;;;;8.38;2.78;;;11.80;99.90;;;;;;5101197;28;20027;-73
2023/05/01 01:48:41;;;;;;;5.68;2.72;;;11.80;99.90;;;;;;5100199;28;20101;-73
2023/05/01 01:51:17;;;;;;;5.13;2.47;;;11.80;99.90;;;;;;5100606;28;20032;-73
2023/05/01 01:53:47;;;;;;;4.20;2.38;;;11.80;99.90;;;;;;5100184;28;20024;-75
2023/05/01 01:56:16;;;;;;;19.92;4.22;;;11.80;99.90;;;;;;5100034;28;20028;-73
2023/05/01 01:58:44;;;;;;;7.18;2.80;;;11.70;99.90;;;;;;5100719;28;20027;-75
2023/05/01 02:01:12;;;;;;;10.95;4.22;;;11.70;99.90;;;;;;5100854;28;20024;-73
2023/05/01 02:03:39;;;;;;;4.97;2.75;;;11.70;99.90;;;;;;5100217;28;20024;-74
2023/05/01 02:06:07;;;;;;;5.72;2.83;;;11.70;99.90;;;;;;5099939;28;20028;-73
2023/05/01 02:08:34;;;;;;;5.32;2.70;;;11.70;99.90;;;;;;5099720;28;20024;-73
2023/05/01 02:11:01;;;;;;;5.35;2.97;;;11.70;99.90;;;;;;5099922;28;20020;-73
2023/05/01 02:13:28;;;;;;;7.13;2.65;;;11.70;99.90;;;;;;5099665;28;20020;-75
2023/05/01 02:15:58;;;;;;;4.38;2.63;;;11.60;99.90;;;;;;5100451;28;20031;-75
2023/05/01 02:18:27;;;;;;;7.88;3.05;;;11.50;99.90;;;;;;5099640;28;20027;-75
2023/05/01 02:20:55;;;;;;;5.57;2.67;;;11.50;99.90;;;;;;5100392;28;20028;-74
2023/05/01 02:23:22;;;;;;;5.88;3.00;;;11.40;99.90;;;;;;5099934;28;20017;-74
2023/05/01 02:25:50;;;;;;;6.05;2.60;;;11.50;99.90;;;;;;5099558;28;20077;-73
2023/05/01 02:28:22;;;;;;;6.05;2.70;;;11.40;99.90;;;;;;5099769;28;20124;-74
2023/05/01 02:30:47;;;;;;;4.93;2.90;;;11.40;99.90;;;;;;5099400;28;20112;-74
2023/05/01 02:33:13;;;;;;;9.95;3.05;;;11.30;99.90;;;;;;5099408;28;20051;-75
2023/05/01 02:35:40;;;;;;;8.55;4.13;;;11.40;99.90;;;;;;5099789;28;20024;-75
2023/05/01 02:38:06;;;;;;;5.78;3.15;;;11.40;99.90;;;;;;5099915;28;20119;-74
2023/05/01 02:40:32;;;;;;;7.20;3.08;;;11.30;99.90;;;;;;5100099;28;20091;-73
2023/05/01 02:43:03;;;;;;;4.20;2.70;;;11.20;99.90;;;;;;5099444;28;20021;-74
2023/05/01 02:45:30;;;;;;;7.47;3.20;;;11.20;99.90;;;;;;5099299;28;20063;-73
2023/05/01 02:47:58;;;;;;;7.47;4.28;;;11.30;99.90;;;;;;5100006;28;20058;-73
2023/05/01 02:50:25;;;;;;;6.20;3.17;;;11.30;99.90;;;;;;5099176;28;20039;-73
2023/05/01 02:52:51;;;;;;;6.18;3.38;;;11.30;99.90;;;;;;5097797;28;20056;-73
2023/05/01 02:55:17;;;;;;;5.07;2.67;;;11.20;99.90;;;;;;5099002;28;20056;-75
2023/05/01 02:57:42;;;;;;;8.90;2.80;;;11.30;99.90;;;;;;5098849;28;20030;-74
2023/05/01 03:00:12;;;;;;;9.00;2.92;;;11.30;99.90;;;;;;5099666;28;20024;-74
2023/05/01 03:02:41;;;;;;;11.25;3.17;;;11.30;99.90;;;;;;5098832;28;20020;-74
2023/05/01 03:05:07;;;;;;;5.30;3.33;;;11.20;99.90;;;;;;5098963;28;20051;-75
2023/05/01 03:07:35;;;;;;;6.00;2.92;;;11.20;99.90;;;;;;5099490;28;20028;-73
2023/05/01 03:10:03;;;;;;;4.78;2.90;;;11.20;99.90;;;;;;5099724;28;20035;-73
2023/05/01 03:12:29;;;;;;;6.50;3.13;;;11.30;99.90;;;;;;5098696;28;20028;-74
2023/05/01 03:14:55;;;;;;;8.18;3.95;;;11.30;99.90;;;;;;5098743;28;20035;-74
2023/05/01 03:17:21;;;;;;;10.32;3.50;;;11.20;99.90;;;;;;5098809;28;20020;-74
2023/05/01 03:19:48;;;;;;;4.88;3.25;;;11.20;99.90;;;;;;5099426;28;20027;-74
2023/05/01 03:22:15;;;;;;;4.38;3.45;;;11.20;99.90;;;;;;5098514;28;20016;-74
2023/05/01 03:24:40;;;;;;;6.00;4.00;;;11.30;99.90;;;;;;5099276;28;20020;-74
2023/05/01 03:27:06;;;;;;;6.85;2.85;;;11.30;99.90;;;;;;5098710;28;20074;-74
2023/05/01 03:29:33;;;;;;;9.73;3.33;;;11.20;99.90;;;;;;5099682;28;20024;-74
2023/05/01 03:31:59;;;;;;;7.88;3.25;;;11.10;99.90;;;;;;5099090;28;20077;-74
2023/05/01 03:34:24;;;;;;;4.75;2.65;;;11.10;99.90;;;;;;5098306;28;20024;-75
2023/05/01 03:36:50;;;;;;;6.63;2.60;;;11.10;99.90;;;;;;5097924;28;20027;-73
2023/05/01 03:39:16;;;;;;;11.00;3.45;;;11.10;99.90;;;;;;5098234;28;20024;-75
2023/05/01 03:41:41;;;;;;;7.60;2.90;;;11.20;99.90;;;;;;5098055;28;20020;-75
2023/05/01 03:44:07;;;;;;;4.25;2.80;;;11.20;99.90;;;;;;5097932;28;20024;-73
2023/05/01 03:46:32;;;;;;;5.88;2.58;;;11.20;99.90;;;;;;5098250;28;20016;-73
2023/05/01 03:48:58;;;;;;;6.88;3.25;;;11.10;99.90;;;;;;5097914;28;20030;-74
2023/05/01 03:51:24;;;;;;;3.53;2.40;;;11.20;99.90;;;;;;5097775;28;20091;-74
2023/05/01 03:53:51;;;;;;;4.32;2.60;;;11.30;99.90;;;;;;5098718;28;20020;-73
2023/05/01 03:56:16;;;;;;;4.03;2.70;;;11.10;99.90;;;;;;5097648;28;20032;-73
2023/05/01 03:58:42;;;;;;;4.07;2.50;;;11.20;99.90;;;;;;5097773;28;20028;-73
2023/05/01 04:01:08;;;;;;;6.28;3.30;;;11.10;99.90;;;;;;5098438;28;20046;-73
2023/05/01 04:03:33;;;;;;;5.35;2.67;;;11.20;99.90;;;;;;5097305;28;20099;-75
2023/05/01 04:05:59;;;;;;;6.80;2.90;;;11.20;99.90;;;;;;5097588;28;20081;-75
2023/05/01 04:08:24;;;;;;;8.88;2.97;;;11.10;99.90;;;;;;5098469;28;20020;-74
2023/05/01 04:10:50;;;;;;;12.30;2.88;;;11.00;99.90;;;;;;5098533;28;20016;-73
2023/05/01 04:13:16;;;;;;;6.25;2.78;;;11.00;99.90;;;;;;5097399;28;20035;-73
2023/05/01 04:15:48;;;;;;;6.35;2.58;;;11.10;99.90;;;;;;5098627;28;20024;-75
2023/05/01 04:18:13;;;;;;;4.18;2.92;;;11.10;99.90;;;;;;5097351;28;20020;-75
2023/05/01 04:20:39;;;;;;;5.40;2.80;;;11.20;99.90;;;;;;5097145;28;20027;-74
2023/05/01 04:23:05;;;;;;;6.70;2.60;;;11.20;99.90;;;;;;5097276;28;20069;-75
2023/05/01 04:25:30;;;;;;;7.57;3.47;;;11.20;99.90;;;;;;5097510;28;20020;-75
2023/05/01 04:27:56;;;;;;;5.32;3.17;;;11.00;99.90;;;;;;5097068;28;20115;-75
2023/05/01 04:30:21;;;;;;;7.07;2.80;;;11.10;99.90;;;;;;5097586;28;20119;-75
2023/05/01 04:32:47;;;;;;;7.70;2.40;;;11.00;99.90;;;;;;5097325;28;20020;-75
2023/05/01 04:35:13;;;;;;;4.40;3.13;;;11.10;99.90;;;;;;5097127;28;20020;-75
2023/05/01 04:37:38;;;;;;;7.05;2.78;;;11.10;99.90;;;;;;5097659;28;20075;-73
2023/05/01 04:40:04;;;;;;;4.97;2.50;;;11.10;99.90;;;;;;5097618;28;20024;-73
2023/05/01 04:42:31;;;;;;;3.85;2.67;;;11.20;99.90;;;;;;5096920;28;20085;-75
2023/05/01 04:44:56;;;;;;;5.75;3.42;;;11.10;99.90;;;;;;5096879;28;20035;-75
2023/05/01 04:47:22;;;;;;;5.40;2.67;;;11.10;99.90;;;;;;5097747;28;20023;-74
2023/05/01 04:49:48;;;;;;;6.30;2.45;;;11.10;99.90;;;;;;5096793;28;20032;-75
2023/05/01 04:52:13;;;;;;;9.25;3.10;;;11.10;99.90;;;;;;5096944;28;20080;-75
2023/05/01 04:54:39;;;;;;;12.15;3.10;;;11.10;99.90;;;;;;5096762;28;20031;-73
2023/05/01 04:57:04;;;;;;;8.88;2.97;;;11.10;99.90;;;;;;5096802;28;20024;-73
2023/05/01 04:59:30;;;;;;;6.25;3.20;;;11.00;99.90;;;;;;5096499;28;20023;-73
2023/05/01 05:01:55;;;;;;;6.43;3.35;;;11.10;99.90;;;;;;5097357;28;20032;-74
2023/05/01 05:04:21;;;;;;;7.28;2.95;;;11.10;99.90;;;;;;5096819;28;20020;-73
2023/05/01 05:06:47;;;;;;;5.75;2.88;;;11.10;99.90;;;;;;5096628;28;20106;-75
2023/05/01 05:09:13;;;;;;;7.68;2.85;;;11.10;99.90;;;;;;5096568;28;20066;-74
2023/05/01 05:11:38;;;;;;;9.07;2.95;;;11.20;99.90;;;;;;5096398;28;20063;-74
2023/05/01 05:14:04;;;;;;;7.28;3.25;;;11.10;99.90;;;;;;5096529;28;20104;-75
2023/05/01 05:16:30;;;;;;;14.48;3.08;;;11.20;99.90;;;;;;5095971;28;20024;-73
2023/05/01 05:18:56;;;;;;;8.05;2.75;;;11.20;99.90;;;;;;5096297;28;20031;-73
2023/05/01 05:21:22;;;;;;;6.78;2.70;;;11.20;99.90;;;;;;5096382;28;20020;-73
2023/05/01 05:23:47;;;;;;;8.60;2.83;;;11.20;99.90;;;;;;5097366;28;20016;-74
2023/05/01 05:26:13;;;;;;;7.82;2.72;;;11.30;99.90;;;;;;5097236;28;20020;-73
2023/05/01 05:28:39;;;;;;;5.43;2.70;;;11.20;99.90;;;;;;5097127;28;20027;-73
2023/05/01 05:31:05;;;;;;;9.40;2.72;;;11.30;99.90;;;;;;5096575;28;20107;-75
2023/05/01 05:33:30;;;;;;;5.72;2.88;;;11.20;99.90;;;;;;5096271;28;20047;-74
2023/05/01 05:35:58;;;;;;;6.63;3.28;;;11.20;99.90;;;;;;5096980;28;20066;-74
2023/05/01 05:38:24;;;;;;;8.88;2.92;;;11.20;99.90;;;;;;5096434;28;20032;-73
2023/05/01 05:40:50;;;;;;;7.25;3.08;;;11.30;99.90;;;;;;5097583;28;20023;-75
2023/05/01 05:43:15;;;;;;;4.55;2.75;;;11.30;99.90;;;;;;5097130;28;20028;-74
2023/05/01 05:45:41;;;;;;;7.57;2.90;;;11.30;99.90;;;;;;5097278;28;20025;-74
2023/05/01 05:48:06;;;;;;;6.18;2.90;;;11.30;99.90;;;;;;5096374;28;20035;-75
2023/05/01 05:50:32;;;;;;;7.15;3.10;;;11.40;99.90;;;;;;5096592;28;20032;-73
2023/05/01 05:52:57;;;;;;;6.70;3.20;;;11.30;99.90;;;;;;5096170;28;20032;-75
2023/05/01 05:55:23;;;;;;;9.80;2.97;;;11.40;99.90;;;;;;5096029;28;20078;-73
2023/05/01 05:57:48;;;;;;;4.85;2.72;;;11.50;99.90;;;;;;5096033;28;20115;-73
2023/05/01 06:00:15;;;;;;;7.80;3.13;;;11.50;99.90;;;;;;5095931;28;20116;-75
2023/05/01 06:02:41;;;;;;;6.65;2.55;;;11.50;99.90;;;;;;5097232;28;20016;-74
2023/05/01 06:05:09;;;;;;;6.97;2.88;;;11.50;99.90;;;;;;5096038;28;20012;-75
2023/05/01 06:07:34;;;;;;;7.53;2.80;;;11.50;99.90;;;;;;5096904;28;20020;-75
2023/05/01 06:10:03;;;;;;;5.65;2.80;;;11.60;99.90;;;;;;5095871;28;20035;-73
2023/05/01 06:12:30;;;;;;;9.73;3.38;;;11.60;99.90;;;;;;5096894;28;20031;-73
2023/05/01 06:14:56;;;;;;;8.13;3.15;;;11.60;99.90;;;;;;5095832;28;20024;-74
2023/05/01 06:17:23;;;;;;;4.93;2.75;;;11.70;99.90;;;;;;5095948;28;20028;-73
2023/05/01 06:19:51;;;;;;;7.90;2.75;;;11.80;99.90;;;;;;5095779;28;20026;-75
2023/05/01 06:22:17;;;;;;;7.50;3.30;;;11.80;99.90;;;;;;5096763;28;20024;-74
2023/05/01 06:24:43;;;;;;;5.38;2.80;;;11.90;99.90;;;;;;5096160;28;20023;-73
2023/05/01 06:27:08;;;;;;;6.18;2.80;;;11.90;99.90;;;;;;5097586;28;20024;-75
2023/05/01 06:29:34;;;;;;;4.50;2.60;;;11.90;99.90;;;;;;5099714;28;20035;-77
2023/05/01 06:32:00;;;;;;;7.75;3.10;;;12.00;99.90;;;;;;5099407;28;20024;-75
2023/05/01 06:34:25;;;;;;;5.82;2.75;;;12.00;99.90;;;;;;5100664;28;20024;-75
2023/05/01 06:36:51;;;;;;;4.65;2.90;;;12.10;99.90;;;;;;5099403;28;20020;-73
2023/05/01 06:39:16;;;;;;;7.45;3.22;;;12.10;99.90;;;;;;5099500;28;20035;-73
2023/05/01 06:41:45;;;;;;;6.40;2.72;;;12.10;99.90;;;;;;5099237;28;20024;-73
2023/05/01 06:44:11;;;;;;;5.60;2.47;;;12.20;99.90;;;;;;5099545;28;20016;-73
2023/05/01 06:46:36;;;;;;;9.38;2.65;;;12.20;99.90;;;;;;5099120;28;20028;-73
2023/05/01 06:49:02;;;;;;;9.38;2.95;;;12.20;99.90;;;;;;5099369;28;20028;-74
2023/05/01 06:51:30;;;;;;;10.70;3.28;;;12.30;99.90;;;;;;5099056;28;20028;-75
2023/05/01 06:53:56;;;;;;;9.02;2.42;;;12.30;99.90;;;;;;5099053;28;20024;-75
2023/05/01 06:56:21;;;;;;;8.70;2.95;;;12.30;99.90;;;;;;5098929;28;20024;-74
2023/05/01 06:58:47;;;;;;;8.95;3.03;;;12.30;99.90;;;;;;5099224;28;20064;-75
2023/05/01 07:01:12;;;;;;;4.75;2.53;;;12.40;99.90;;;;;;5099007;28;20034;-74
2023/05/01 07:03:38;;;;;;;5.22;2.63;;;12.40;99.90;;;;;;5098748;28;20046;-74
2023/05/01 07:06:03;;;;;;;9.38;2.78;;;12.50;99.90;;;;;;5099856;28;20027;-74
2023/05/01 07:08:29;;;;;;;4.63;2.90;;;12.60;99.90;;;;;;5099083;28;20031;-75
2023/05/01 07:10:55;;;;;;;7.88;3.00;;;12.70;99.90;;;;;;5098673;28;20061;-75
2023/05/01 07:13:20;;;;;;;8.25;2.75;;;12.60;99.90;;;;;;5099087;28;20016;-73
2023/05/01 07:15:47;;;;;;;4.60;2.42;;;12.60;99.90;;;;;;5098798;28;20027;-73
2023/05/01 07:18:13;;;;;;;9.45;2.55;;;12.70;99.90;;;;;;5098569;28;20020;-73
2023/05/01 07:20:39;;;;;;;6.90;2.70;;;12.80;99.90;;;;;;5099336;28;20027;-75
2023/05/01 07:23:05;;;;;;;6.00;3.08;;;12.90;99.90;;;;;;5098625;28;20028;-75
2023/05/01 07:25:30;;;;;;;8.25;2.63;;;12.80;99.90;;;;;;5098478;28;20043;-75
2023/05/01 07:27:56;;;;;;;4.88;2.42;;;12.90;99.90;;;;;;5098354;28;20024;-74
2023/05/01 07:30:21;;;;;;;7.93;2.25;;;13.00;99.90;;;;;;5098165;28;20024;-74
2023/05/01 07:32:47;;;;;;;7.80;2.60;;;13.10;99.90;;;;;;5098361;28;20077;-74
2023/05/01 07:35:13;;;;;;;9.52;2.83;;;13.20;99.90;;;;;;5099470;28;20027;-75
2023/05/01 07:37:38;;;;;;;7.15;2.80;;;13.30;99.90;;;;;;5098709;28;20051;-75
2023/05/01 07:40:04;;;;;;;8.32;2.72;;;13.40;99.90;;;;;;5098320;28;20024;-75
2023/05/01 07:42:30;;;;;;;4.20;2.38;;;13.50;99.90;;;;;;5098178;28;20020;-75
2023/05/01 07:44:56;;;;;;;4.60;2.65;;;13.50;99.90;;;;;;5100869;28;20115;-77
2023/05/01 07:47:22;;;;;;;6.90;2.88;;;13.60;99.90;;;;;;5099313;28;20031;-75
2023/05/01 07:49:47;;;;;;;7.50;3.10;;;13.70;99.90;;;;;;5098847;28;20016;-75
2023/05/01 07:52:14;;;;;;;5.82;3.33;;;13.70;99.90;;;;;;5097846;28;20028;-75
2023/05/01 07:54:40;;;;;;;9.23;3.10;;;13.80;99.90;;;;;;5098103;28;20024;-75
2023/05/01 07:57:06;;;;;;;4.72;2.65;;;13.70;99.90;;;;;;5097724;28;20046;-75
2023/05/01 07:59:31;;;;;;;12.63;2.95;;;13.70;99.90;;;;;;5097738;28;20012;-75
2023/05/01 08:01:57;;;;;;;5.50;3.00;;;13.70;99.90;;;;;;5097659;28;20028;-75
2023/05/01 08:04:22;;;;;;;5.15;3.17;;;13.70;99.90;;;;;;5097706;28;20044;-75
2023/05/01 08:06:50;;;;;;;9.20;3.15;;;13.70;99.90;;;;;;5097914;28;20024;-75
2023/05/01 08:09:15;;;;;;;8.25;3.10;;;13.70;99.90;;;;;;5097840;28;20024;-75
2023/05/01 08:11:41;;;;;;;6.25;3.15;;;13.80;99.90;;;;;;5097722;28;20114;-75
2023/05/01 08:14:07;;;;;;;8.50;3.30;;;13.90;99.90;;;;;;5097504;28;20028;-75
2023/05/01 08:16:36;;;;;;;7.57;3.17;;;14.00;99.90;;;;;;5098225;28;20024;-75
2023/05/01 08:19:01;;;;;;;6.53;3.15;;;14.10;99.90;;;;;;5097231;28;20016;-75
2023/05/01 08:21:27;;;;;;;9.82;3.10;;;14.20;99.90;;;;;;5098180;28;20035;-75
2023/05/01 08:23:55;;;;;;;5.07;3.17;;;14.20;99.90;;;;;;5097254;28;20037;-75
2023/05/01 08:26:20;;;;;;;7.63;3.00;;;14.40;99.90;;;;;;5097216;28;20031;-75
2023/05/01 08:28:46;;;;;;;6.53;3.28;;;14.50;99.90;;;;;;5098223;28;20024;-75
2023/05/01 08:31:12;;;;;;;6.63;3.58;;;14.50;99.90;;;;;;5097013;28;20024;-75
2023/05/01 08:33:40;;;;;;;6.65;3.22;;;14.50;99.90;;;;;;5097909;28;20028;-75
2023/05/01 08:36:07;;;;;;;5.93;3.38;;;14.70;99.90;;;;;;5096904;28;20024;-75
2023/05/01 08:38:32;;;;;;;6.00;3.17;;;14.90;99.90;;;;;;5098017;28;20073;-75
2023/05/01 08:41:00;;;;;;;12.85;3.22;;;14.90;99.90;;;;;;5096934;28;20020;-75
2023/05/01 08:43:26;;;;;;;11.13;3.03;;;14.90;99.90;;;;;;5096885;28;20024;-75
2023/05/01 08:45:54;;;;;;;8.30;3.70;;;15.20;99.90;;;;;;5097005;28;20112;-75
2023/05/01 08:48:22;;;;;;;11.43;3.45;;;15.60;99.90;;;;;;5096878;28;20107;-75
2023/05/01 08:50:48;;;;;;;7.47;3.47;;;15.70;99.90;;;;;;5096810;28;20042;-75
2023/05/01 08:53:18;;;;;;;8.15;3.38;;;15.60;99.90;;;;;;5096708;28;20028;-75
2023/05/01 08:55:47;;;;;;;6.60;3.60;;;15.60;99.90;;;;;;5097714;28;20101;-75
2023/05/01 08:58:16;;;;;;;7.00;3.47;;;15.80;99.90;;;;;;5097564;28;20064;-75
2023/05/01 09:00:42;;;;;;;9.43;4.15;;;15.80;99.90;;;;;;5097276;28;20021;-75
2023/05/01 09:03:11;;;;;;;6.22;2.75;;;15.80;99.90;;;;;;5096976;28;20031;-75
2023/05/01 09:05:36;;;;;;;7.68;3.47;;;16.20;99.90;;;;;;5096739;28;20020;-75
2023/05/01 09:08:02;;;;;;;7.20;3.47;;;16.40;99.90;;;;;;5097686;28;20115;-75
2023/05/01 09:10:29;;;;;;;5.95;2.90;;;16.40;99.90;;;;;;5096559;28;20028;-75
2023/05/01 09:12:58;;;;;;;5.25;3.35;;;16.50;99.90;;;;;;5097065;28;20027;-75
2023/05/01 09:15:29;;;;;;;5.20;3.70;;;16.60;99.90;;;;;;5096560;28;20020;-75
2023/05/01 09:17:57;;;;;;;6.55;3.20;;;16.70;99.90;;;;;;5097094;28;20050;-74
2023/05/01 09:20:24;;;;;;;7.45;3.65;;;16.60;99.90;;;;;;5096610;28;20016;-75
2023/05/01 09:22:49;;;;;;;6.88;3.28;;;16.40;99.90;;;;;;5096412;28;20027;-75
2023/05/01 09:25:15;;;;;;;6.30;3.00;;;16.50;99.90;;;;;;5096676;28;20020;-74
2023/05/01 09:27:41;;;;;;;5.45;3.20;;;16.60;99.90;;;;;;5096331;28;20024;-73
2023/05/01 09:30:07;;;;;;;4.15;2.70;;;16.40;99.90;;;;;;5096240;28;20024;-73
2023/05/01 09:32:33;;;;;;;6.30;3.40;;;16.40;99.90;;;;;;5096595;28;20047;-74
2023/05/01 09:35:13;;;;;;;7.60;3.15;;;16.60;99.90;;;;;;5097133;28;20024;-74
2023/05/01 09:37:40;;;;;;;6.05;2.97;;;16.90;99.90;;;;;;5097115;28;20026;-74
2023/05/01 09:40:10;;;;;;;10.27;3.40;;;17.00;99.90;;;;;;5096036;28;20066;-74
2023/05/01 09:42:47;;;;;;;4.93;3.30;;;17.00;99.90;;;;;;5096609;28;20016;-73
2023/05/01 09:45:14;;;;;;;5.43;3.22;;;17.00;99.90;;;;;;5096256;28;20077;-72
2023/05/01 09:47:44;;;;;;;6.13;2.72;;;16.90;99.90;;;;;;5096096;28;20052;-72
2023/05/01 09:50:12;;;;;;;6.68;3.03;;;17.20;99.90;;;;;;5096821;28;20024;-72
2023/05/01 09:52:38;;;;;;;7.10;3.40;;;17.30;99.90;;;;;;5096932;28;20055;-72
2023/05/01 09:55:15;;;;;;;5.85;2.95;;;17.50;99.90;;;;;;5096068;28;20024;-72
2023/05/01 09:57:41;;;;;;;7.32;3.30;;;18.00;99.90;;;;;;5096028;28;20057;-72
2023/05/01 10:00:11;;;;;;;5.20;2.95;;;18.00;99.90;;;;;;5095793;28;20020;-72
2023/05/01 10:02:38;;;;;;;4.13;2.90;;;17.80;99.90;;;;;;5098658;28;20046;-72
2023/05/01 10:05:04;;;;;;;4.07;3.28;;;17.80;99.90;;;;;;5100496;28;20028;-72
2023/05/01 10:07:30;;;;;;;4.13;2.83;;;17.70;99.90;;;;;;5099942;28;20028;-72
2023/05/01 10:09:55;;;;;;;6.10;3.15;;;17.50;99.90;;;;;;5099645;28;20020;-72
2023/05/01 10:12:25;;;;;;;7.38;3.15;;;17.50;99.90;;;;;;5100572;28;20107;-72
2023/05/01 10:14:55;;;;;;;5.07;3.00;;;17.90;99.90;;;;;;5100252;28;20020;-72
2023/05/01 10:17:22;;;;;;;5.35;3.10;;;18.00;99.90;;;;;;5100564;28;20017;-73
2023/05/01 10:19:48;;;;;;;8.93;3.00;;;18.20;99.90;;;;;;5100101;28;20119;-72
2023/05/01 10:22:14;;;;;;;4.65;2.97;;;18.10;99.90;;;;;;5099698;28;20020;-73
2023/05/01 10:24:41;;;;;;;5.13;2.72;;;18.30;99.90;;;;;;5099601;28;20081;-72
2023/05/01 10:27:07;;;;;;;10.00;3.47;;;18.50;99.90;;;;;;5099553;28;20153;-73
2023/05/01 10:29:36;;;;;;;4.53;3.03;;;18.60;99.90;;;;;;5099804;28;20027;-72
2023/05/01 10:32:04;;;;;;;5.93;2.90;;;18.50;99.90;;;;;;5099694;28;20027;-72
2023/05/01 10:34:33;;;;;;;4.43;2.60;;;18.10;99.90;;;;;;5100321;28;20024;-72
2023/05/01 10:37:05;;;;;;;4.85;2.90;;;18.00;99.90;;;;;;5099634;28;20050;-71
2023/05/01 10:39:32;;;;;;;6.22;3.47;;;17.90;99.90;;;;;;5099361;28;20077;-73
2023/05/01 10:41:57;;;;;;;5.13;3.00;;;18.20;99.90;;;;;;5099183;28;20031;-73
2023/05/01 10:44:26;;;;;;;5.72;3.03;;;18.50;99.90;;;;;;5099244;28;20016;-74
2023/05/01 10:46:52;;;;;;;5.68;3.47;;;18.80;99.90;;;;;;5099072;28;20028;-74
2023/05/01 10:49:18;;;;;;;6.18;2.85;;;20.10;99.90;;;;;;5099428;28;20058;-74
2023/05/01 10:52:02;;;;;;;5.65;2.95;;;20.50;99.90;;;;;;5099111;28;20036;-74
2023/05/01 10:54:32;;;;;;;3.80;2.50;;;20.90;99.90;;;;;;5099801;28;20031;-74
2023/05/01 10:57:01;;;;;;;4.07;2.70;;;21.40;99.90;;;;;;5099512;28;20051;-74
2023/05/01 10:59:53;;;;;;;5.60;3.15;;;22.00;99.90;;;;;;5098927;28;20016;-74
2023/05/01 11:02:21;;;;;;;4.22;2.97;;;22.70;98.30;;;;;;5098707;28;20031;-74
2023/05/01 11:04:50;;;;;;;5.22;3.17;;;23.40;96.10;;;;;;5099900;28;20027;-73
2023/05/01 11:07:17;;;;;;;5.35;2.95;;;23.70;93.40;;;;;;5099873;28;20114;-84
2023/05/01 11:09:52;;;;;;;4.25;3.08;;;23.40;92.70;;;;;;5100930;28;20024;-84
2023/05/01 11:12:47;;;;;;;4.95;2.92;;;22.90;93.20;;;;;;5099710;28;20020;-84
2023/05/01 11:15:26;;;;;;;5.28;2.95;;;21.80;96.80;;;;;;5099620;28;20020;-84
2023/05/01 11:17:52;;;;;;;3.85;2.70;;;21.30;97.80;;;;;;5099680;28;20123;-84
2023/05/01 11:20:24;;;;;;;3.50;2.90;;;21.40;97.00;;;;;;5099944;28;20058;-85
2023/05/01 11:22:51;;;;;;;3.67;2.80;;;21.90;95.40;;;;;;5098829;28;20020;-85
2023/05/01 11:25:22;;;;;;;4.95;3.00;;;21.50;96.00;;;;;;5098536;28;20028;-85
2023/05/01 11:27:49;;;;;;;3.75;2.90;;;22.60;94.70;;;;;;5099503;28;20036;-85
2023/05/01 11:30:15;;;;;;;3.85;2.78;;;23.20;92.70;;;;;;5098508;28;20085;-84
2023/05/01 11:32:46;;;;;;;5.28;3.10;;;22.60;93.90;;;;;;5099369;28;20051;-85
2023/05/01 11:35:30;;;;;;;5.53;2.80;;;23.20;92.50;;;;;;5098390;28;20031;-84
2023/05/01 11:37:56;;;;;;;5.40;3.45;;;22.00;92.90;;;;;;5098854;28;20028;-84
2023/05/01 11:40:26;;;;;;;5.63;3.33;;;21.40;93.30;;;;;;5098238;28;20039;-84
2023/05/01 11:43:00;;;;;;;3.75;2.83;;;21.30;94.00;;;;;;5098326;28;20066;-84
2023/05/01 11:45:25;;;;;;;6.30;2.78;;;21.20;93.40;;;;;;5098694;28;20016;-84
2023/05/01 11:47:52;;;;;;;4.18;2.65;;;21.00;94.50;;;;;;5098883;28;20062;-84
2023/05/01 11:50:17;;;;;;;9.13;4.90;;;21.00;94.70;;;;;;5099184;28;20038;-84
2023/05/01 11:52:53;;;;;;;13.20;8.05;;;21.30;93.70;;;;;;5099478;28;20118;-84
2023/05/01 11:55:20;;;;;;;4.40;2.70;;;21.00;94.50;;;;;;5099652;28;20024;-84
2023/05/01 11:57:52;;;;;;;3.00;2.30;;;22.00;92.20;;;;;;5100704;28;20024;-84
2023/05/01 12:00:36;;;;;;;4.32;2.60;;;22.30;92.90;;;;;;5099900;28;20024;-85
2023/05/01 12:03:05;;;;;;;3.58;2.50;;;22.00;92.60;;;;;;5101639;28;20020;-85
2023/05/01 12:05:31;;;;;;;4.18;2.50;;;22.10;92.00;;;;;;5098030;28;20020;-86
2023/05/01 12:08:20;;;;;;;3.33;2.58;;;22.60;91.40;;;;;;5098288;28;20020;-84
2023/05/01 12:10:48;;;;;;;4.05;2.85;;;22.40;90.80;;;;;;5098759;28;20043;-84
2023/05/01 12:13:14;;;;;;;6.28;2.90;;;21.50;90.70;;;;;;5097998;28;20028;-84
2023/05/01 12:15:43;;;;;;;6.20;2.30;;;21.20;92.00;;;;;;5098574;28;20032;-83
2023/05/01 12:18:08;;;;;;;9.43;5.60;;;21.30;92.50;;;;;;5097708;28;20024;-84
2023/05/01 12:20:38;;;;;;;5.90;2.60;;;21.90;91.80;;;;;;5097877;28;20031;-84
2023/05/01 12:23:05;;;;;;;3.72;2.10;;;21.70;90.60;;;;;;5097747;28;20020;-84
2023/05/01 12:25:33;;;;;;;4.57;2.25;;;22.60;90.90;;;;;;5097314;28;20020;-84
2023/05/01 12:28:00;;;;;;;4.47;2.92;;;23.00;89.80;;;;;;5097558;28;20080;-85
2023/05/01 12:30:26;;;;;;;4.72;2.65;;;24.30;89.10;;;;;;5097565;28;20051;-84
2023/05/01 12:32:52;;;;;;;5.20;2.90;;;25.00;88.00;;;;;;5098340;28;20024;-84
2023/05/01 12:35:17;;;;;;;2.58;2.28;;;25.40;85.10;;;;;;5097440;28;20040;-84
2023/05/01 12:37:43;;;;;;;5.90;2.33;;;26.00;81.20;;;;;;5097296;28;20073;-84
2023/05/01 12:40:15;;;;;;;4.80;2.30;;;26.10;80.70;;;;;;5097576;28;20020;-84
2023/05/01 12:42:41;;;;;;;2.97;2.55;;;26.50;80.80;;;;;;5097556;28;20024;-85
2023/05/01 12:45:11;;;;;;;4.10;2.50;;;26.20;81.90;;;;;;5097358;28;20057;-84
2023/05/01 12:47:37;;;;;;;3.97;2.85;;;25.70;79.10;;;;;;5097905;28;20024;-85
2023/05/01 12:50:03;;;;;;;3.58;2.30;;;25.90;82.60;;;;;;5096891;28;20020;-84